createdAt,value
2019-01-13T00:00:45.114Z,96.533203
2019-01-13T00:01:54.695Z,96.740723
2019-01-13T00:03:04.306Z,96.844482
2019-01-13T00:04:14.038Z,96.533203
2019-01-13T00:05:23.655Z,96.429443
2019-01-13T00:06:33.156Z,96.533203
2019-01-13T00:07:42.773Z,96.325684
2019-01-13T00:08:52.347Z,96.21582
2019-01-13T00:10:01.927Z,96.112061
2019-01-13T00:11:11.576Z,96.21582
2019-01-13T00:12:21.206Z,95.758057
2019-01-13T00:13:30.744Z,95.550537
2019-01-13T00:14:40.346Z,95.654297
2019-01-13T00:15:49.965Z,95.758057
2019-01-13T00:16:59.510Z,96.069336
2019-01-13T00:18:09.107Z,95.758057
2019-01-13T00:19:18.637Z,95.861816
2019-01-13T00:20:29.076Z,95.654297
2019-01-13T00:21:38.566Z,95.758057
2019-01-13T00:22:48.156Z,95.758057
2019-01-13T00:23:58.758Z,96.069336
2019-01-13T00:25:08.423Z,96.21582
2019-01-13T00:26:18.028Z,96.325684
2019-01-13T00:27:27.606Z,96.21582
2019-01-13T00:28:37.262Z,96.325684
2019-01-13T00:29:46.828Z,96.636963
2019-01-13T00:30:56.380Z,96.636963
2019-01-13T00:32:06.007Z,96.533203
2019-01-13T00:33:15.610Z,96.533203
2019-01-13T00:34:25.293Z,96.21582
2019-01-13T00:35:34.905Z,96.112061
2019-01-13T00:36:44.538Z,95.965576
2019-01-13T00:37:54.124Z,96.21582
2019-01-13T00:39:03.983Z,96.21582
2019-01-13T00:40:13.648Z,96.069336
2019-01-13T00:41:23.244Z,96.173096
2019-01-13T00:42:32.910Z,96.276855
2019-01-13T00:43:42.526Z,96.069336
2019-01-13T00:44:52.171Z,96.069336
2019-01-13T00:46:01.869Z,96.069336
2019-01-13T00:47:11.518Z,95.758057
2019-01-13T00:48:21.079Z,95.758057
2019-01-13T00:49:30.681Z,95.965576
2019-01-13T00:50:40.314Z,95.965576
2019-01-13T00:51:49.897Z,95.861816
2019-01-13T00:52:59.452Z,95.965576
2019-01-13T00:54:09.001Z,95.861816
2019-01-13T00:55:18.641Z,95.550537
2019-01-13T00:56:28.262Z,95.550537
2019-01-13T00:57:37.818Z,95.758057
2019-01-13T00:58:47.439Z,95.758057
2019-01-13T00:59:57.012Z,95.758057
2019-01-13T01:01:06.573Z,95.758057
2019-01-13T01:02:16.176Z,95.440674
2019-01-13T01:03:25.780Z,95.025635
2019-01-13T01:04:35.414Z,95.129395
2019-01-13T01:05:44.989Z,95.336914
2019-01-13T01:06:54.533Z,95.440674
2019-01-13T01:08:04.114Z,95.440674
2019-01-13T01:09:13.725Z,95.336914
2019-01-13T01:10:23.328Z,95.654297
2019-01-13T01:11:32.843Z,95.861816
2019-01-13T01:12:42.469Z,95.965576
2019-01-13T01:13:52.047Z,95.861816
2019-01-13T01:15:01.594Z,95.965576
2019-01-13T01:16:11.184Z,95.758057
2019-01-13T01:17:20.772Z,95.861816
2019-01-13T01:18:30.318Z,95.550537
2019-01-13T01:19:39.919Z,95.654297
2019-01-13T01:20:49.559Z,95.654297
2019-01-13T01:21:59.126Z,95.654297
2019-01-13T01:23:08.664Z,95.550537
2019-01-13T01:24:18.301Z,95.758057
2019-01-13T01:25:27.822Z,95.758057
2019-01-13T01:26:37.419Z,95.654297
2019-01-13T01:27:46.999Z,95.550537
2019-01-13T01:28:56.577Z,95.550537
2019-01-13T01:30:06.162Z,95.758057
2019-01-13T01:31:15.803Z,95.758057
2019-01-13T01:32:25.370Z,95.654297
2019-01-13T01:33:34.974Z,95.550537
2019-01-13T01:34:44.553Z,95.654297
2019-01-13T01:35:54.205Z,95.550537
2019-01-13T01:37:03.807Z,95.440674
2019-01-13T01:38:13.425Z,95.550537
2019-01-13T01:39:23.987Z,95.654297
2019-01-13T01:40:33.553Z,95.550537
2019-01-13T01:41:43.133Z,95.758057
2019-01-13T01:42:52.728Z,95.861816
2019-01-13T01:44:02.323Z,96.069336
2019-01-13T01:45:11.956Z,96.276855
2019-01-13T01:46:21.504Z,95.965576
2019-01-13T01:47:31.099Z,96.276855
2019-01-13T01:48:40.671Z,96.173096
2019-01-13T01:49:50.276Z,96.276855
2019-01-13T01:50:59.863Z,96.380615
2019-01-13T01:52:09.399Z,96.069336
2019-01-13T01:53:18.958Z,96.173096
2019-01-13T01:54:28.508Z,96.276855
2019-01-13T01:55:38.041Z,96.490479
2019-01-13T01:56:47.571Z,96.380615
2019-01-13T01:57:57.150Z,96.173096
2019-01-13T01:59:06.707Z,96.069336
2019-01-13T02:00:16.325Z,95.965576
2019-01-13T02:01:25.888Z,95.758057
2019-01-13T02:02:35.456Z,95.965576
2019-01-13T02:03:45.034Z,95.861816
2019-01-13T02:04:54.653Z,95.965576
2019-01-13T02:06:04.355Z,96.069336
2019-01-13T02:07:13.818Z,96.380615
2019-01-13T02:08:23.363Z,96.490479
2019-01-13T02:09:33.976Z,96.276855
2019-01-13T02:10:43.523Z,96.276855
2019-01-13T02:11:53.135Z,96.276855
2019-01-13T02:13:02.676Z,96.276855
2019-01-13T02:14:12.255Z,96.490479
2019-01-13T02:15:21.888Z,96.490479
2019-01-13T02:16:31.477Z,96.276855
2019-01-13T02:17:41.035Z,95.861816
2019-01-13T02:18:50.627Z,95.861816
2019-01-13T02:20:00.311Z,95.654297
2019-01-13T02:21:09.860Z,95.397949
2019-01-13T02:22:19.449Z,95.501709
2019-01-13T02:23:29.080Z,95.501709
2019-01-13T02:24:38.645Z,95.758057
2019-01-13T02:25:48.274Z,95.501709
2019-01-13T02:26:57.823Z,95.19043
2019-01-13T02:28:07.450Z,95.08667
2019-01-13T02:29:17.210Z,95.501709
2019-01-13T02:30:26.973Z,94.98291
2019-01-13T02:31:36.591Z,95.08667
2019-01-13T02:32:46.164Z,95.501709
2019-01-13T02:33:55.720Z,95.294189
2019-01-13T02:35:05.382Z,95.294189
2019-01-13T02:36:14.960Z,95.294189
2019-01-13T02:37:24.562Z,95.294189
2019-01-13T02:38:34.135Z,95.294189
2019-01-13T02:39:43.731Z,94.87915
2019-01-13T02:40:53.272Z,95.19043
2019-01-13T02:42:02.894Z,95.19043
2019-01-13T02:43:12.439Z,95.715332
2019-01-13T02:44:22.143Z,95.922852
2019-01-13T02:45:31.767Z,95.611572
2019-01-13T02:46:41.444Z,95.294189
2019-01-13T02:47:51.139Z,95.611572
2019-01-13T02:49:00.762Z,95.397949
2019-01-13T02:50:10.498Z,95.819092
2019-01-13T02:51:20.138Z,95.922852
2019-01-13T02:52:29.804Z,95.922852
2019-01-13T02:53:39.767Z,95.922852
2019-01-13T02:54:49.890Z,96.130371
2019-01-13T02:55:59.611Z,96.44165
2019-01-13T02:57:09.164Z,96.337891
2019-01-13T02:58:18.728Z,96.026611
2019-01-13T02:59:28.332Z,95.922852
2019-01-13T03:00:37.922Z,96.026611
2019-01-13T03:01:47.518Z,96.130371
2019-01-13T03:02:57.110Z,96.026611
2019-01-13T03:04:06.752Z,96.234131
2019-01-13T03:05:16.333Z,96.337891
2019-01-13T03:06:25.965Z,96.337891
2019-01-13T03:07:35.532Z,96.234131
2019-01-13T03:08:45.097Z,96.234131
2019-01-13T03:09:54.723Z,95.819092
2019-01-13T03:11:04.301Z,95.611572
2019-01-13T03:12:13.869Z,95.294189
2019-01-13T03:13:23.480Z,95.501709
2019-01-13T03:14:33.189Z,95.611572
2019-01-13T03:15:42.764Z,95.715332
2019-01-13T03:16:52.350Z,95.715332
2019-01-13T03:18:01.927Z,95.819092
2019-01-13T03:19:10.581Z,95.715332
2019-01-13T03:20:20.107Z,95.397949
2019-01-13T03:21:29.645Z,95.251465
2019-01-13T03:22:39.230Z,95.147705
2019-01-13T03:23:48.803Z,94.940186
2019-01-13T03:24:58.414Z,94.940186
2019-01-13T03:26:08.013Z,95.043945
2019-01-13T03:27:17.615Z,95.043945
2019-01-13T03:28:27.124Z,94.940186
2019-01-13T03:29:36.716Z,95.043945
2019-01-13T03:30:46.354Z,95.043945
2019-01-13T03:31:55.914Z,94.940186
2019-01-13T03:33:05.486Z,94.628906
2019-01-13T03:34:15.000Z,94.415283
2019-01-13T03:35:24.589Z,94.415283
2019-01-13T03:36:34.123Z,94.415283
2019-01-13T03:37:43.675Z,94.415283
2019-01-13T03:38:53.208Z,94.732666
2019-01-13T03:40:02.758Z,94.940186
2019-01-13T03:41:12.306Z,94.732666
2019-01-13T03:42:21.832Z,95.147705
2019-01-13T03:43:31.367Z,95.043945
2019-01-13T03:44:40.898Z,94.940186
2019-01-13T03:45:50.526Z,95.147705
2019-01-13T03:47:00.171Z,95.355225
2019-01-13T03:48:09.969Z,95.147705
2019-01-13T03:49:19.600Z,95.397949
2019-01-13T03:50:29.244Z,95.715332
2019-01-13T03:51:38.859Z,96.069336
2019-01-13T03:52:52.986Z,96.069336
2019-01-13T03:53:57.977Z,96.173096
2019-01-13T03:55:07.528Z,96.533203
2019-01-13T03:56:17.071Z,96.948242
2019-01-13T03:57:26.612Z,97.265625
2019-01-13T03:58:36.127Z,97.265625
2019-01-13T03:59:45.671Z,97.473145
2019-01-13T04:00:55.257Z,97.576904
2019-01-13T04:02:04.827Z,97.680664
2019-01-13T04:03:14.346Z,97.680664
2019-01-13T04:04:23.950Z,97.680664
2019-01-13T04:05:33.495Z,97.784424
2019-01-13T04:06:43.064Z,97.784424
2019-01-13T04:07:52.630Z,97.888184
2019-01-13T04:09:02.216Z,97.741699
2019-01-13T04:10:11.781Z,97.43042
2019-01-13T04:11:21.332Z,97.216797
2019-01-13T04:12:30.884Z,97.113037
2019-01-13T04:13:40.472Z,96.862793
2019-01-13T04:14:50.019Z,96.759033
2019-01-13T04:15:59.567Z,96.655273
2019-01-13T04:17:09.280Z,96.337891
2019-01-13T04:18:18.932Z,96.44165
2019-01-13T04:19:28.614Z,96.54541
2019-01-13T04:20:38.228Z,96.655273
2019-01-13T04:21:47.765Z,96.54541
2019-01-13T04:22:57.278Z,96.54541
2019-01-13T04:24:06.815Z,96.655273
2019-01-13T04:25:16.375Z,96.655273
2019-01-13T04:26:25.913Z,96.44165
2019-01-13T04:27:35.446Z,96.087646
2019-01-13T04:28:44.998Z,95.776367
2019-01-13T04:29:54.533Z,95.880127
2019-01-13T04:31:04.082Z,95.562744
2019-01-13T04:32:13.617Z,95.776367
2019-01-13T04:33:23.158Z,95.983887
2019-01-13T04:34:32.686Z,95.776367
2019-01-13T04:35:42.253Z,96.087646
2019-01-13T04:36:51.768Z,96.087646
2019-01-13T04:38:01.299Z,95.666504
2019-01-13T04:39:10.878Z,95.776367
2019-01-13T04:40:20.414Z,95.880127
2019-01-13T04:41:29.970Z,95.880127
2019-01-13T04:42:39.497Z,95.880127
2019-01-13T04:43:49.030Z,95.666504
2019-01-13T04:44:58.566Z,95.776367
2019-01-13T04:46:08.144Z,95.776367
2019-01-13T04:47:17.677Z,95.562744
2019-01-13T04:48:27.186Z,95.458984
2019-01-13T04:49:36.734Z,95.355225
2019-01-13T04:50:46.273Z,95.562744
2019-01-13T04:51:55.835Z,95.562744
2019-01-13T04:53:05.348Z,95.251465
2019-01-13T04:54:14.864Z,94.940186
2019-01-13T04:55:24.407Z,94.476318
2019-01-13T04:56:33.933Z,94.372559
2019-01-13T04:57:43.481Z,94.689941
2019-01-13T04:58:53.028Z,94.793701
2019-01-13T05:00:02.562Z,94.793701
2019-01-13T05:01:12.095Z,95.001221
2019-01-13T05:02:21.633Z,95.251465
2019-01-13T05:03:31.168Z,94.897461
2019-01-13T05:04:40.694Z,95.10498
2019-01-13T05:05:50.247Z,95.10498
2019-01-13T05:06:59.793Z,94.793701
2019-01-13T05:08:09.297Z,95.001221
2019-01-13T05:09:18.824Z,95.10498
2019-01-13T05:10:28.397Z,95.355225
2019-01-13T05:11:37.913Z,95.355225
2019-01-13T05:12:47.451Z,95.458984
2019-01-13T05:13:56.990Z,95.355225
2019-01-13T05:15:06.547Z,95.458984
2019-01-13T05:16:16.074Z,95.562744
2019-01-13T05:17:25.685Z,95.562744
2019-01-13T05:18:35.163Z,95.458984
2019-01-13T05:19:44.689Z,95.458984
2019-01-13T05:20:54.319Z,95.458984
2019-01-13T05:22:03.887Z,95.458984
2019-01-13T05:23:13.423Z,95.562744
2019-01-13T05:24:22.953Z,95.776367
2019-01-13T05:25:32.512Z,95.666504
2019-01-13T05:26:42.028Z,95.562744
2019-01-13T05:27:51.568Z,95.562744
2019-01-13T05:29:01.095Z,95.41626
2019-01-13T05:30:10.608Z,95.10498
2019-01-13T05:31:20.160Z,95.001221
2019-01-13T05:32:29.714Z,95.10498
2019-01-13T05:33:39.231Z,95.001221
2019-01-13T05:34:48.759Z,95.001221
2019-01-13T05:35:58.385Z,94.793701
2019-01-13T05:37:07.976Z,94.793701
2019-01-13T05:38:17.503Z,94.476318
2019-01-13T05:39:27.042Z,94.580078
2019-01-13T05:40:36.599Z,94.793701
2019-01-13T05:41:46.162Z,95.001221
2019-01-13T05:42:55.701Z,94.689941
2019-01-13T05:44:05.221Z,94.793701
2019-01-13T05:45:14.733Z,94.476318
2019-01-13T05:46:24.284Z,94.793701
2019-01-13T05:47:33.821Z,94.580078
2019-01-13T05:48:43.364Z,94.476318
2019-01-13T05:49:52.881Z,94.580078
2019-01-13T05:51:02.426Z,94.689941
2019-01-13T05:52:11.981Z,94.580078
2019-01-13T05:53:21.532Z,94.580078
2019-01-13T05:54:31.054Z,94.580078
2019-01-13T05:55:40.581Z,94.476318
2019-01-13T05:56:50.114Z,94.372559
2019-01-13T05:57:59.650Z,94.372559
2019-01-13T05:59:09.188Z,94.372559
2019-01-13T06:00:18.711Z,94.165039
2019-01-13T06:01:28.245Z,94.268799
2019-01-13T06:02:38.795Z,94.268799
2019-01-13T06:03:48.336Z,94.580078
2019-01-13T06:04:57.886Z,94.580078
2019-01-13T06:06:07.412Z,94.476318
2019-01-13T06:07:16.946Z,94.061279
2019-01-13T06:08:26.472Z,93.811035
2019-01-13T06:09:36.017Z,93.707275
2019-01-13T06:10:45.532Z,94.165039
2019-01-13T06:11:55.093Z,93.95752
2019-01-13T06:13:04.606Z,93.603516
2019-01-13T06:14:14.141Z,93.707275
2019-01-13T06:15:23.670Z,93.707275
2019-01-13T06:16:33.216Z,93.707275
2019-01-13T06:17:42.725Z,93.707275
2019-01-13T06:18:52.259Z,93.811035
2019-01-13T06:20:01.811Z,93.811035
2019-01-13T06:21:11.335Z,94.165039
2019-01-13T06:22:20.884Z,94.061279
2019-01-13T06:23:30.435Z,93.811035
2019-01-13T06:24:39.960Z,93.707275
2019-01-13T06:25:49.505Z,93.85376
2019-01-13T06:26:59.068Z,93.914795
2019-01-13T06:28:08.578Z,93.811035
2019-01-13T06:29:18.119Z,93.85376
2019-01-13T06:30:27.651Z,93.811035
2019-01-13T06:31:37.195Z,93.707275
2019-01-13T06:32:46.713Z,93.603516
2019-01-13T06:33:56.278Z,93.499756
2019-01-13T06:35:05.815Z,93.499756
2019-01-13T06:36:15.366Z,93.395996
2019-01-13T06:37:24.918Z,93.499756
2019-01-13T06:38:34.430Z,93.395996
2019-01-13T06:39:43.985Z,93.499756
2019-01-13T06:40:53.509Z,93.499756
2019-01-13T06:42:03.151Z,93.707275
2019-01-13T06:43:12.686Z,93.707275
2019-01-13T06:44:22.226Z,93.499756
2019-01-13T06:45:31.829Z,93.499756
2019-01-13T06:46:41.408Z,93.499756
2019-01-13T06:47:50.960Z,93.707275
2019-01-13T06:49:00.496Z,93.499756
2019-01-13T06:50:10.041Z,93.499756
2019-01-13T06:51:19.586Z,93.499756
2019-01-13T06:52:29.140Z,93.499756
2019-01-13T06:53:38.642Z,93.707275
2019-01-13T06:54:48.195Z,93.603516
2019-01-13T06:55:57.751Z,93.603516
2019-01-13T06:57:07.331Z,93.811035
2019-01-13T06:58:16.857Z,93.811035
2019-01-13T06:59:26.392Z,93.811035
2019-01-13T07:00:35.940Z,93.914795
2019-01-13T07:01:45.470Z,94.061279
2019-01-13T07:02:55.002Z,93.914795
2019-01-13T07:04:04.557Z,93.707275
2019-01-13T07:05:14.135Z,93.811035
2019-01-13T07:06:23.663Z,93.914795
2019-01-13T07:07:33.212Z,93.811035
2019-01-13T07:08:42.752Z,93.914795
2019-01-13T07:09:52.273Z,93.811035
2019-01-13T07:11:01.832Z,93.707275
2019-01-13T07:12:12.374Z,93.707275
2019-01-13T07:13:21.894Z,93.603516
2019-01-13T07:14:31.425Z,93.603516
2019-01-13T07:15:40.950Z,93.395996
2019-01-13T07:16:50.528Z,93.286133
2019-01-13T07:18:00.037Z,93.499756
2019-01-13T07:19:09.551Z,93.395996
2019-01-13T07:20:19.081Z,93.286133
2019-01-13T07:21:28.622Z,93.395996
2019-01-13T07:22:38.186Z,93.603516
2019-01-13T07:23:47.713Z,93.286133
2019-01-13T07:24:58.276Z,93.395996
2019-01-13T07:26:07.804Z,93.395996
2019-01-13T07:27:17.373Z,93.395996
2019-01-13T07:28:26.931Z,93.286133
2019-01-13T07:29:36.482Z,93.286133
2019-01-13T07:30:46.013Z,93.182373
2019-01-13T07:31:55.584Z,93.286133
2019-01-13T07:33:05.131Z,93.499756
2019-01-13T07:34:14.641Z,93.499756
2019-01-13T07:35:24.209Z,93.395996
2019-01-13T07:36:33.723Z,93.286133
2019-01-13T07:37:43.326Z,93.078613
2019-01-13T07:38:52.859Z,93.078613
2019-01-13T07:40:02.394Z,93.286133
2019-01-13T07:41:11.954Z,93.182373
2019-01-13T07:42:21.479Z,93.286133
2019-01-13T07:43:31.050Z,93.182373
2019-01-13T07:44:40.594Z,93.182373
2019-01-13T07:45:50.125Z,92.974854
2019-01-13T07:46:59.680Z,93.078613
2019-01-13T07:48:09.250Z,92.974854
2019-01-13T07:49:18.821Z,93.078613
2019-01-13T07:50:28.394Z,92.974854
2019-01-13T07:51:37.927Z,92.871094
2019-01-13T07:52:47.525Z,92.767334
2019-01-13T07:53:57.039Z,92.663574
2019-01-13T07:55:06.557Z,92.559814
2019-01-13T07:56:16.102Z,92.559814
2019-01-13T07:57:25.659Z,92.30957
2019-01-13T07:58:35.206Z,92.41333
2019-01-13T07:59:44.734Z,92.41333
2019-01-13T08:00:54.274Z,92.62085
2019-01-13T08:02:03.813Z,92.767334
2019-01-13T08:03:13.351Z,92.767334
2019-01-13T08:04:22.891Z,92.663574
2019-01-13T08:05:32.433Z,92.51709
2019-01-13T08:06:41.937Z,92.30957
2019-01-13T08:07:51.506Z,92.102051
2019-01-13T08:09:02.035Z,92.205811
2019-01-13T08:10:11.572Z,92.41333
2019-01-13T08:11:21.091Z,92.51709
2019-01-13T08:12:30.643Z,92.30957
2019-01-13T08:13:39.140Z,92.51709
2019-01-13T08:14:48.694Z,92.30957
2019-01-13T08:15:58.259Z,92.41333
2019-01-13T08:17:07.769Z,92.30957
2019-01-13T08:18:17.321Z,92.30957
2019-01-13T08:19:26.856Z,92.205811
2019-01-13T08:20:36.410Z,92.205811
2019-01-13T08:21:45.941Z,92.30957
2019-01-13T08:22:55.485Z,92.41333
2019-01-13T08:24:05.045Z,91.894531
2019-01-13T08:25:14.600Z,92.059326
2019-01-13T08:26:24.145Z,91.851807
2019-01-13T08:27:33.693Z,91.748047
2019-01-13T08:28:43.218Z,91.748047
2019-01-13T08:29:52.749Z,91.644287
2019-01-13T08:31:02.294Z,91.644287
2019-01-13T08:32:11.811Z,91.534424
2019-01-13T08:33:21.390Z,91.644287
2019-01-13T08:34:30.913Z,91.644287
2019-01-13T08:35:40.467Z,91.430664
2019-01-13T08:36:49.999Z,91.119385
2019-01-13T08:37:59.600Z,91.015625
2019-01-13T08:39:09.177Z,90.808105
2019-01-13T08:40:18.694Z,90.808105
2019-01-13T08:41:28.207Z,90.808105
2019-01-13T08:42:37.798Z,90.9729
2019-01-13T08:43:47.328Z,90.765381
2019-01-13T08:44:56.850Z,90.911865
2019-01-13T08:46:06.380Z,90.808105
2019-01-13T08:47:15.921Z,90.454102
2019-01-13T08:48:25.525Z,90.454102
2019-01-13T08:49:34.986Z,90.246582
2019-01-13T08:50:44.528Z,90.039062
2019-01-13T08:51:54.042Z,89.624023
2019-01-13T08:53:03.610Z,89.581299
2019-01-13T08:54:13.158Z,89.581299
2019-01-13T08:55:22.686Z,89.581299
2019-01-13T08:56:32.196Z,89.581299
2019-01-13T08:57:41.745Z,89.581299
2019-01-13T08:58:51.302Z,89.0625
2019-01-13T09:00:00.877Z,89.16626
2019-01-13T09:01:10.418Z,89.27002
2019-01-13T09:02:19.967Z,89.27002
2019-01-13T09:03:29.523Z,89.0625
2019-01-13T09:04:39.103Z,89.16626
2019-01-13T09:05:48.642Z,89.16626
2019-01-13T09:06:58.207Z,89.16626
2019-01-13T09:08:07.785Z,89.373779
2019-01-13T09:09:17.416Z,89.477539
2019-01-13T09:10:26.958Z,89.477539
2019-01-13T09:11:36.469Z,89.16626
2019-01-13T09:12:46.031Z,89.477539
2019-01-13T09:13:56.537Z,89.0625
2019-01-13T09:15:06.063Z,88.95874
2019-01-13T09:16:15.602Z,88.95874
2019-01-13T09:17:25.188Z,89.373779
2019-01-13T09:18:34.751Z,89.16626
2019-01-13T09:19:44.299Z,89.16626
2019-01-13T09:20:53.828Z,89.27002
2019-01-13T09:22:03.344Z,89.373779
2019-01-13T09:23:12.891Z,89.16626
2019-01-13T09:24:22.477Z,89.0625
2019-01-13T09:25:32.925Z,89.16626
2019-01-13T09:26:43.253Z,88.95874
2019-01-13T09:27:54.058Z,88.604736
2019-01-13T09:29:03.851Z,88.500977
2019-01-13T09:30:13.826Z,88.293457
2019-01-13T09:31:23.513Z,88.085938
2019-01-13T09:32:39.209Z,88.085938
2019-01-13T09:33:43.819Z,87.561035
2019-01-13T09:34:53.456Z,87.457275
2019-01-13T09:36:03.096Z,87.561035
2019-01-13T09:37:12.663Z,87.768555
2019-01-13T09:38:22.326Z,87.249756
2019-01-13T09:39:31.859Z,87.145996
2019-01-13T09:40:42.502Z,87.249756
2019-01-13T09:41:52.230Z,87.249756
2019-01-13T09:43:01.784Z,87.249756
2019-01-13T09:44:11.354Z,87.561035
2019-01-13T09:45:20.883Z,87.353516
2019-01-13T09:46:30.434Z,87.561035
2019-01-13T09:47:40.004Z,87.249756
2019-01-13T09:48:49.637Z,87.249756
2019-01-13T09:49:59.185Z,87.249756
2019-01-13T09:51:08.804Z,87.561035
2019-01-13T09:52:18.426Z,87.664795
2019-01-13T09:53:28.061Z,87.457275
2019-01-13T09:54:37.601Z,87.457275
2019-01-13T09:55:47.211Z,87.457275
2019-01-13T09:56:56.842Z,87.353516
2019-01-13T09:58:06.403Z,87.457275
2019-01-13T09:59:16.199Z,87.457275
2019-01-13T10:00:25.718Z,87.353516
2019-01-13T10:01:35.306Z,87.249756
2019-01-13T10:02:46.716Z,87.042236
2019-01-13T10:03:54.591Z,86.938477
2019-01-13T10:05:04.187Z,86.590576
2019-01-13T10:06:13.800Z,86.376953
2019-01-13T10:07:23.421Z,86.273193
2019-01-13T10:08:33.316Z,86.376953
2019-01-13T10:09:42.855Z,86.169434
2019-01-13T10:10:52.454Z,86.169434
2019-01-13T10:12:02.029Z,86.273193
2019-01-13T10:13:11.577Z,86.273193
2019-01-13T10:14:21.196Z,86.273193
2019-01-13T10:15:30.731Z,86.486816
2019-01-13T10:16:40.293Z,86.376953
2019-01-13T10:17:49.882Z,86.273193
2019-01-13T10:18:59.490Z,86.169434
2019-01-13T10:20:11.900Z,86.169434
2019-01-13T10:21:21.447Z,86.065674
2019-01-13T10:22:31.035Z,85.961914
2019-01-13T10:23:40.590Z,86.169434
2019-01-13T10:24:50.113Z,86.315918
2019-01-13T10:25:59.629Z,86.486816
2019-01-13T10:27:09.178Z,86.694336
2019-01-13T10:28:18.741Z,86.627197
2019-01-13T10:29:28.347Z,86.627197
2019-01-13T10:30:37.877Z,86.419678
2019-01-13T10:31:47.402Z,86.419678
2019-01-13T10:32:56.945Z,86.523438
2019-01-13T10:34:06.498Z,86.834717
2019-01-13T10:35:16.014Z,86.730957
2019-01-13T10:36:25.550Z,86.834717
2019-01-13T10:37:35.084Z,86.523438
2019-01-13T10:38:44.634Z,86.834717
2019-01-13T10:39:54.156Z,86.938477
2019-01-13T10:41:03.711Z,87.042236
2019-01-13T10:42:13.232Z,87.457275
2019-01-13T10:43:22.783Z,88.293457
2019-01-13T10:44:32.368Z,88.189697
2019-01-13T10:45:41.930Z,88.916016
2019-01-13T10:46:51.444Z,89.16626
2019-01-13T10:48:00.981Z,89.996338
2019-01-13T10:49:10.565Z,90.100098
2019-01-13T10:50:20.073Z,90.307617
2019-01-13T10:51:29.604Z,90.203857
2019-01-13T10:52:39.146Z,90.307617
2019-01-13T10:53:48.712Z,91.040039
2019-01-13T10:54:58.261Z,91.28418
2019-01-13T10:56:07.780Z,91.28418
2019-01-13T10:57:17.335Z,90.869141
2019-01-13T10:58:26.878Z,90.9729
2019-01-13T10:59:36.456Z,91.497803
2019-01-13T11:00:46.086Z,91.601562
2019-01-13T11:01:55.624Z,92.266846
2019-01-13T11:03:05.146Z,92.370605
2019-01-13T11:04:14.709Z,92.059326
2019-01-13T11:05:24.237Z,92.474365
2019-01-13T11:06:33.760Z,92.681885
2019-01-13T11:07:43.293Z,92.681885
2019-01-13T11:08:52.848Z,92.889404
2019-01-13T11:10:02.386Z,92.993164
2019-01-13T11:11:11.945Z,93.096924
2019-01-13T11:12:21.474Z,93.457031
2019-01-13T11:13:30.980Z,93.243408
2019-01-13T11:14:40.550Z,93.457031
2019-01-13T11:15:50.070Z,93.139648
2019-01-13T11:16:59.619Z,93.243408
2019-01-13T11:18:09.165Z,93.035889
2019-01-13T11:19:18.716Z,93.243408
2019-01-13T11:20:28.299Z,93.457031
2019-01-13T11:21:37.890Z,93.457031
2019-01-13T11:22:47.464Z,93.664551
2019-01-13T11:23:57.028Z,93.768311
2019-01-13T11:25:07.575Z,93.768311
2019-01-13T11:26:17.118Z,93.664551
2019-01-13T11:27:26.652Z,93.457031
2019-01-13T11:28:36.208Z,93.768311
2019-01-13T11:29:45.800Z,93.811035
2019-01-13T11:30:55.335Z,93.914795
2019-01-13T11:32:04.881Z,94.122314
2019-01-13T11:33:14.420Z,93.811035
2019-01-13T11:34:24.973Z,93.914795
2019-01-13T11:35:34.508Z,93.811035
2019-01-13T11:36:44.053Z,94.122314
2019-01-13T11:37:53.635Z,94.226074
2019-01-13T11:39:03.231Z,94.329834
2019-01-13T11:40:12.840Z,94.433594
2019-01-13T11:41:22.428Z,94.122314
2019-01-13T11:42:31.958Z,94.537354
2019-01-13T11:43:41.499Z,94.793701
2019-01-13T11:44:51.057Z,95.10498
2019-01-13T11:46:00.605Z,94.689941
2019-01-13T11:47:10.129Z,95.001221
2019-01-13T11:48:19.649Z,95.001221
2019-01-13T11:49:29.288Z,95.20874
2019-01-13T11:50:38.843Z,95.20874
2019-01-13T11:51:48.389Z,94.897461
2019-01-13T11:52:57.941Z,95.001221
2019-01-13T11:54:07.516Z,94.793701
2019-01-13T11:55:17.081Z,95.10498
2019-01-13T11:56:26.626Z,94.897461
2019-01-13T11:57:36.184Z,95.52002
2019-01-13T11:58:45.706Z,95.458984
2019-01-13T11:59:55.276Z,95.355225
2019-01-13T12:01:04.812Z,95.355225
2019-01-13T12:02:14.381Z,95.776367
2019-01-13T12:03:23.926Z,95.666504
2019-01-13T12:04:34.515Z,95.147705
2019-01-13T12:05:44.079Z,95.251465
2019-01-13T12:06:53.614Z,95.043945
2019-01-13T12:08:03.146Z,95.251465
2019-01-13T12:09:12.723Z,95.666504
2019-01-13T12:10:22.303Z,95.666504
2019-01-13T12:11:31.858Z,95.880127
2019-01-13T12:12:41.371Z,95.983887
2019-01-13T12:13:50.906Z,95.666504
2019-01-13T12:15:00.475Z,95.880127
2019-01-13T12:16:09.997Z,95.251465
2019-01-13T12:17:19.533Z,95.147705
2019-01-13T12:18:29.048Z,95.458984
2019-01-13T12:19:39.596Z,95.562744
2019-01-13T12:20:49.155Z,95.562744
2019-01-13T12:21:58.723Z,95.776367
2019-01-13T12:23:08.266Z,95.983887
2019-01-13T12:24:17.829Z,95.776367
2019-01-13T12:25:27.391Z,95.666504
2019-01-13T12:26:36.921Z,95.983887
2019-01-13T12:27:46.442Z,95.666504
2019-01-13T12:28:55.948Z,95.880127
2019-01-13T12:30:05.544Z,95.666504
2019-01-13T12:31:15.170Z,95.776367
2019-01-13T12:32:24.709Z,95.880127
2019-01-13T12:33:34.237Z,95.776367
2019-01-13T12:34:43.904Z,95.666504
2019-01-13T12:35:53.451Z,95.562744
2019-01-13T12:37:03.244Z,95.666504
2019-01-13T12:38:13.795Z,95.776367
2019-01-13T12:39:23.374Z,95.983887
2019-01-13T12:40:32.917Z,95.666504
2019-01-13T12:41:42.442Z,95.458984
2019-01-13T12:42:51.979Z,95.458984
2019-01-13T12:44:01.535Z,95.880127
2019-01-13T12:45:11.100Z,95.880127
2019-01-13T12:46:20.650Z,96.087646
2019-01-13T12:47:30.177Z,95.983887
2019-01-13T12:48:39.723Z,95.983887
2019-01-13T12:49:49.315Z,96.191406
2019-01-13T12:50:58.843Z,96.087646
2019-01-13T12:52:08.390Z,95.880127
2019-01-13T12:53:17.903Z,95.562744
2019-01-13T12:54:27.479Z,95.562744
2019-01-13T12:55:37.033Z,95.562744
2019-01-13T12:56:46.573Z,95.666504
2019-01-13T12:57:56.125Z,95.562744
2019-01-13T12:59:05.651Z,95.562744
2019-01-13T13:00:15.259Z,95.666504
2019-01-13T13:01:24.858Z,95.666504
2019-01-13T13:02:34.406Z,95.776367
2019-01-13T13:03:43.928Z,95.776367
2019-01-13T13:04:53.501Z,95.562744
2019-01-13T13:06:03.047Z,95.880127
2019-01-13T13:07:12.588Z,95.776367
2019-01-13T13:08:22.133Z,95.880127
2019-01-13T13:09:31.687Z,95.983887
2019-01-13T13:10:41.245Z,95.983887
2019-01-13T13:11:50.759Z,96.087646
2019-01-13T13:13:00.327Z,95.776367
2019-01-13T13:14:09.881Z,95.776367
2019-01-13T13:15:19.468Z,95.562744
2019-01-13T13:16:29.010Z,95.776367